Terminal Aerodrome Forecast
Issued by NWS Charleston, SC

Home | Current Version | Previous Version | Text Only | Print | Product List | Glossary On
Versions: 1 2 3 4 5 6 7 8 9 10 11 12 13 14 15 16 17 18 19 20 21 22 23 24 25 26 27 28 29
000
FTUS42 KCHS 170537
TAFCHS
TAF
KCHS 170537Z 1706/1806 00000KT P6SM OVC250
     FM170900 00000KT 4SM BR OVC015
      TEMPO 1709/1712 1/2SM FG OVC002
     FM171400 24005KT P6SM SCT009 BKN025
     FM171700 24006KT P6SM SCT250=

USA.gov is the U.S. government's official web portal to all federal, state and local government web resources and services.